TNCA/AUA METAR and TAF weather

Enter ICAO airport designator
Station Type Date Time Source
TNCA METAR 2021/04/13 06:00 UTC NOAA

TNCA 130600Z 09018KT 9999 FEW018 27/24 Q1009 NOSIG


Station Type Date Time Source
TNCA Decoded METAR 2021/04/13 06:00 UTC NOAA

Queen Beatrix Airport, Aruba (TNCA) 12-30N 070-01W 33M
Apr 13, 2021 - 02:00 AM EDT / 2021.04.13 0600 UTC
Wind: from the E (090 degrees) at 21 MPH (18 KT):0
Visibility: greater than 7 mile(s):0
Sky conditions: mostly clear
Temperature: 80 F (27 C)
Dew Point: 75 F (24 C)
Relative Humidity: 83%
Pressure (altimeter): 29.80 in. Hg (1009 hPa)
ob: TNCA 130600Z 09018KT 9999 FEW018 27/24 Q1009 NOSIG
cycle: 6

Station Type Date Time Source
TNCA TAF 2021/04/13 00:22 UTC NOAA

TAF TNCA 122315Z 1300/1324 08020KT 9999 SCT020

Example: see airport list